sensor_id;sensor_type;location;lat;lon;timestamp;P1;durP1;ratioP1;P2;durP2;ratioP2
9496;SDS011;4786;51.270;4.456;2023-05-13T00:01:15;13.00;;;11.70;;
9496;SDS011;4786;51.270;4.456;2023-05-13T00:03:42;13.50;;;11.67;;
9496;SDS011;4786;51.270;4.456;2023-05-13T00:06:08;12.83;;;11.73;;
9496;SDS011;4786;51.270;4.456;2023-05-13T00:08:34;12.87;;;11.77;;
9496;SDS011;4786;51.270;4.456;2023-05-13T00:10:59;11.77;;;10.77;;
9496;SDS011;4786;51.270;4.456;2023-05-13T00:13:26;12.77;;;11.53;;
9496;SDS011;4786;51.270;4.456;2023-05-13T00:15:51;13.37;;;12.27;;
9496;SDS011;4786;51.270;4.456;2023-05-13T00:18:17;14.03;;;12.60;;
9496;SDS011;4786;51.270;4.456;2023-05-13T00:20:44;14.10;;;12.60;;
9496;SDS011;4786;51.270;4.456;2023-05-13T00:23:10;13.73;;;12.43;;
9496;SDS011;4786;51.270;4.456;2023-05-13T00:25:36;13.07;;;11.87;;
9496;SDS011;4786;51.270;4.456;2023-05-13T00:28:02;13.20;;;12.00;;
9496;SDS011;4786;51.270;4.456;2023-05-13T00:30:29;13.97;;;12.67;;
9496;SDS011;4786;51.270;4.456;2023-05-13T00:32:55;13.50;;;12.23;;
9496;SDS011;4786;51.270;4.456;2023-05-13T00:35:21;13.63;;;12.30;;
9496;SDS011;4786;51.270;4.456;2023-05-13T00:37:47;13.00;;;11.73;;
9496;SDS011;4786;51.270;4.456;2023-05-13T00:40:23;13.33;;;12.00;;
9496;SDS011;4786;51.270;4.456;2023-05-13T00:42:49;13.87;;;12.57;;
9496;SDS011;4786;51.270;4.456;2023-05-13T00:45:16;12.67;;;11.40;;
9496;SDS011;4786;51.270;4.456;2023-05-13T00:47:42;12.30;;;11.20;;
9496;SDS011;4786;51.270;4.456;2023-05-13T00:50:09;11.67;;;10.77;;
9496;SDS011;4786;51.270;4.456;2023-05-13T00:52:39;12.83;;;11.63;;
9496;SDS011;4786;51.270;4.456;2023-05-13T00:55:06;12.50;;;11.23;;
9496;SDS011;4786;51.270;4.456;2023-05-13T00:57:32;12.43;;;11.33;;
9496;SDS011;4786;51.270;4.456;2023-05-13T00:59:59;12.63;;;11.53;;
9496;SDS011;4786;51.270;4.456;2023-05-13T01:08:03;11.90;;;10.93;;
9496;SDS011;4786;51.270;4.456;2023-05-13T01:13:34;12.77;;;11.50;;
9496;SDS011;4786;51.270;4.456;2023-05-13T01:16:17;11.90;;;10.67;;
9496;SDS011;4786;51.270;4.456;2023-05-13T01:18:47;10.90;;;9.90;;
9496;SDS011;4786;51.270;4.456;2023-05-13T01:21:21;12.33;;;11.10;;
9496;SDS011;4786;51.270;4.456;2023-05-13T01:23:51;11.20;;;10.20;;
9496;SDS011;4786;51.270;4.456;2023-05-13T01:26:18;11.50;;;10.33;;
9496;SDS011;4786;51.270;4.456;2023-05-13T01:28:45;11.07;;;10.13;;
9496;SDS011;4786;51.270;4.456;2023-05-13T01:31:12;11.27;;;10.27;;
9496;SDS011;4786;51.270;4.456;2023-05-13T01:33:39;11.17;;;10.00;;
9496;SDS011;4786;51.270;4.456;2023-05-13T01:36:06;11.50;;;10.47;;
9496;SDS011;4786;51.270;4.456;2023-05-13T01:38:34;10.63;;;9.73;;
9496;SDS011;4786;51.270;4.456;2023-05-13T01:41:00;11.03;;;9.87;;
9496;SDS011;4786;51.270;4.456;2023-05-13T01:43:26;11.77;;;9.63;;
9496;SDS011;4786;51.270;4.456;2023-05-13T01:45:52;10.90;;;9.80;;
9496;SDS011;4786;51.270;4.456;2023-05-13T01:48:18;9.97;;;8.90;;
9496;SDS011;4786;51.270;4.456;2023-05-13T01:50:44;10.77;;;9.87;;
9496;SDS011;4786;51.270;4.456;2023-05-13T01:53:11;10.67;;;9.63;;
9496;SDS011;4786;51.270;4.456;2023-05-13T01:55:37;12.03;;;10.23;;
9496;SDS011;4786;51.270;4.456;2023-05-13T01:58:03;10.23;;;9.23;;
9496;SDS011;4786;51.270;4.456;2023-05-13T02:00:29;10.23;;;9.23;;
9496;SDS011;4786;51.270;4.456;2023-05-13T02:02:55;10.83;;;9.17;;
9496;SDS011;4786;51.270;4.456;2023-05-13T02:05:21;13.03;;;8.67;;
9496;SDS011;4786;51.270;4.456;2023-05-13T02:07:47;10.10;;;8.97;;
9496;SDS011;4786;51.270;4.456;2023-05-13T02:10:13;9.57;;;8.63;;
9496;SDS011;4786;51.270;4.456;2023-05-13T02:12:39;10.67;;;8.50;;
9496;SDS011;4786;51.270;4.456;2023-05-13T02:15:05;9.30;;;8.40;;
9496;SDS011;4786;51.270;4.456;2023-05-13T02:17:32;9.37;;;8.47;;
9496;SDS011;4786;51.270;4.456;2023-05-13T02:19:58;9.43;;;8.30;;
9496;SDS011;4786;51.270;4.456;2023-05-13T02:22:24;9.53;;;8.53;;
9496;SDS011;4786;51.270;4.456;2023-05-13T02:24:49;9.30;;;8.37;;
9496;SDS011;4786;51.270;4.456;2023-05-13T02:27:16;9.50;;;8.60;;
9496;SDS011;4786;51.270;4.456;2023-05-13T02:29:41;9.20;;;8.33;;
9496;SDS011;4786;51.270;4.456;2023-05-13T02:32:07;9.67;;;8.57;;
9496;SDS011;4786;51.270;4.456;2023-05-13T02:34:33;9.57;;;8.50;;
9496;SDS011;4786;51.270;4.456;2023-05-13T02:36:59;8.03;;;7.33;;
9496;SDS011;4786;51.270;4.456;2023-05-13T02:39:27;9.30;;;8.40;;
9496;SDS011;4786;51.270;4.456;2023-05-13T02:41:53;9.13;;;8.23;;
9496;SDS011;4786;51.270;4.456;2023-05-13T02:44:19;10.00;;;9.00;;
9496;SDS011;4786;51.270;4.456;2023-05-13T02:46:45;9.57;;;8.67;;
9496;SDS011;4786;51.270;4.456;2023-05-13T02:49:11;8.60;;;7.80;;
9496;SDS011;4786;51.270;4.456;2023-05-13T02:51:37;9.63;;;8.30;;
9496;SDS011;4786;51.270;4.456;2023-05-13T02:54:03;10.73;;;8.40;;
9496;SDS011;4786;51.270;4.456;2023-05-13T02:56:31;8.90;;;8.23;;
9496;SDS011;4786;51.270;4.456;2023-05-13T02:58:56;8.23;;;7.40;;
9496;SDS011;4786;51.270;4.456;2023-05-13T03:01:22;8.57;;;7.77;;
9496;SDS011;4786;51.270;4.456;2023-05-13T03:03:50;10.60;;;8.40;;
9496;SDS011;4786;51.270;4.456;2023-05-13T03:06:16;9.20;;;8.17;;
9496;SDS011;4786;51.270;4.456;2023-05-13T03:08:42;8.27;;;7.57;;
9496;SDS011;4786;51.270;4.456;2023-05-13T03:11:07;10.07;;;8.30;;
9496;SDS011;4786;51.270;4.456;2023-05-13T03:13:33;11.87;;;8.57;;
9496;SDS011;4786;51.270;4.456;2023-05-13T03:16:00;9.07;;;8.17;;
9496;SDS011;4786;51.270;4.456;2023-05-13T03:18:26;9.10;;;8.20;;
9496;SDS011;4786;51.270;4.456;2023-05-13T03:20:55;8.90;;;7.90;;
9496;SDS011;4786;51.270;4.456;2023-05-13T03:23:21;10.90;;;8.20;;
9496;SDS011;4786;51.270;4.456;2023-05-13T03:25:47;8.37;;;7.33;;
9496;SDS011;4786;51.270;4.456;2023-05-13T03:28:13;8.00;;;7.20;;
9496;SDS011;4786;51.270;4.456;2023-05-13T03:30:39;8.50;;;7.27;;
9496;SDS011;4786;51.270;4.456;2023-05-13T03:33:05;8.53;;;7.73;;
9496;SDS011;4786;51.270;4.456;2023-05-13T03:35:31;8.60;;;7.67;;
9496;SDS011;4786;51.270;4.456;2023-05-13T03:37:57;8.37;;;7.57;;
9496;SDS011;4786;51.270;4.456;2023-05-13T03:40:23;7.33;;;6.63;;
9496;SDS011;4786;51.270;4.456;2023-05-13T03:42:49;8.60;;;7.67;;
9496;SDS011;4786;51.270;4.456;2023-05-13T03:45:15;11.03;;;7.23;;
9496;SDS011;4786;51.270;4.456;2023-05-13T03:47:41;11.80;;;7.53;;
9496;SDS011;4786;51.270;4.456;2023-05-13T03:50:07;12.37;;;7.13;;
9496;SDS011;4786;51.270;4.456;2023-05-13T03:52:34;9.00;;;6.57;;
9496;SDS011;4786;51.270;4.456;2023-05-13T03:54:59;7.77;;;7.07;;
9496;SDS011;4786;51.270;4.456;2023-05-13T03:57:25;7.13;;;6.50;;
9496;SDS011;4786;51.270;4.456;2023-05-13T03:59:51;7.70;;;6.90;;
9496;SDS011;4786;51.270;4.456;2023-05-13T04:02:17;7.37;;;6.67;;
9496;SDS011;4786;51.270;4.456;2023-05-13T04:04:45;7.23;;;6.57;;
9496;SDS011;4786;51.270;4.456;2023-05-13T04:07:11;6.40;;;5.73;;
9496;SDS011;4786;51.270;4.456;2023-05-13T04:09:37;7.00;;;6.27;;
9496;SDS011;4786;51.270;4.456;2023-05-13T04:12:03;10.00;;;6.80;;
9496;SDS011;4786;51.270;4.456;2023-05-13T04:14:30;8.83;;;6.77;;
9496;SDS011;4786;51.270;4.456;2023-05-13T04:16:55;9.30;;;7.17;;
9496;SDS011;4786;51.270;4.456;2023-05-13T04:19:21;7.47;;;5.87;;
9496;SDS011;4786;51.270;4.456;2023-05-13T04:21:47;8.03;;;7.23;;
9496;SDS011;4786;51.270;4.456;2023-05-13T04:24:13;7.30;;;6.60;;
9496;SDS011;4786;51.270;4.456;2023-05-13T04:26:39;7.80;;;7.10;;
9496;SDS011;4786;51.270;4.456;2023-05-13T04:29:05;7.97;;;7.13;;
9496;SDS011;4786;51.270;4.456;2023-05-13T04:31:31;8.20;;;7.30;;
9496;SDS011;4786;51.270;4.456;2023-05-13T04:33:57;8.23;;;7.43;;
9496;SDS011;4786;51.270;4.456;2023-05-13T04:36:23;8.33;;;7.53;;
9496;SDS011;4786;51.270;4.456;2023-05-13T04:38:49;8.77;;;7.03;;
9496;SDS011;4786;51.270;4.456;2023-05-13T04:41:15;11.33;;;7.33;;
9496;SDS011;4786;51.270;4.456;2023-05-13T04:43:41;9.50;;;7.10;;
9496;SDS011;4786;51.270;4.456;2023-05-13T04:46:06;10.10;;;7.40;;
9496;SDS011;4786;51.270;4.456;2023-05-13T04:48:32;8.27;;;7.43;;
9496;SDS011;4786;51.270;4.456;2023-05-13T04:50:58;7.70;;;6.90;;
9496;SDS011;4786;51.270;4.456;2023-05-13T04:53:25;8.40;;;7.60;;
9496;SDS011;4786;51.270;4.456;2023-05-13T04:55:50;7.40;;;6.70;;
9496;SDS011;4786;51.270;4.456;2023-05-13T04:58:21;8.10;;;7.00;;
9496;SDS011;4786;51.270;4.456;2023-05-13T05:00:47;12.97;;;7.77;;
9496;SDS011;4786;51.270;4.456;2023-05-13T05:03:13;7.90;;;6.67;;
9496;SDS011;4786;51.270;4.456;2023-05-13T05:05:39;7.90;;;6.90;;
9496;SDS011;4786;51.270;4.456;2023-05-13T05:08:04;9.47;;;7.13;;
9496;SDS011;4786;51.270;4.456;2023-05-13T05:10:30;8.87;;;7.23;;
9496;SDS011;4786;51.270;4.456;2023-05-13T05:12:56;9.97;;;7.47;;
9496;SDS011;4786;51.270;4.456;2023-05-13T05:15:22;7.67;;;7.07;;
9496;SDS011;4786;51.270;4.456;2023-05-13T05:17:48;8.03;;;7.23;;
9496;SDS011;4786;51.270;4.456;2023-05-13T05:20:14;10.77;;;7.23;;
9496;SDS011;4786;51.270;4.456;2023-05-13T05:22:40;8.10;;;7.43;;
9496;SDS011;4786;51.270;4.456;2023-05-13T05:25:06;10.27;;;7.97;;
9496;SDS011;4786;51.270;4.456;2023-05-13T05:27:33;8.00;;;7.20;;
9496;SDS011;4786;51.270;4.456;2023-05-13T05:29:59;8.27;;;7.33;;
9496;SDS011;4786;51.270;4.456;2023-05-13T05:32:25;8.93;;;7.10;;
9496;SDS011;4786;51.270;4.456;2023-05-13T05:34:51;8.87;;;7.17;;
9496;SDS011;4786;51.270;4.456;2023-05-13T05:37:17;11.10;;;6.87;;
9496;SDS011;4786;51.270;4.456;2023-05-13T05:39:43;7.67;;;6.97;;
9496;SDS011;4786;51.270;4.456;2023-05-13T05:42:09;8.03;;;6.60;;
9496;SDS011;4786;51.270;4.456;2023-05-13T05:44:35;11.50;;;7.30;;
9496;SDS011;4786;51.270;4.456;2023-05-13T05:47:01;10.13;;;6.53;;
9496;SDS011;4786;51.270;4.456;2023-05-13T05:49:27;7.43;;;6.63;;
9496;SDS011;4786;51.270;4.456;2023-05-13T05:51:53;7.93;;;6.90;;
9496;SDS011;4786;51.270;4.456;2023-05-13T05:54:19;6.93;;;6.22;;
9496;SDS011;4786;51.270;4.456;2023-05-13T05:56:45;9.73;;;6.00;;
9496;SDS011;4786;51.270;4.456;2023-05-13T05:59:10;12.25;;;6.43;;
9496;SDS011;4786;51.270;4.456;2023-05-13T06:01:36;8.60;;;5.95;;
9496;SDS011;4786;51.270;4.456;2023-05-13T06:04:02;6.82;;;6.05;;
9496;SDS011;4786;51.270;4.456;2023-05-13T06:06:28;6.72;;;5.75;;
9496;SDS011;4786;51.270;4.456;2023-05-13T06:08:55;5.93;;;5.32;;
9496;SDS011;4786;51.270;4.456;2023-05-13T06:11:21;7.82;;;5.60;;
9496;SDS011;4786;51.270;4.456;2023-05-13T06:13:46;6.78;;;4.97;;
9496;SDS011;4786;51.270;4.456;2023-05-13T06:16:12;10.18;;;5.82;;
9496;SDS011;4786;51.270;4.456;2023-05-13T06:18:38;6.07;;;5.47;;
9496;SDS011;4786;51.270;4.456;2023-05-13T06:21:04;7.78;;;5.45;;
9496;SDS011;4786;51.270;4.456;2023-05-13T06:23:30;5.95;;;5.00;;
9496;SDS011;4786;51.270;4.456;2023-05-13T06:25:56;5.75;;;5.18;;
9496;SDS011;4786;51.270;4.456;2023-05-13T06:28:23;7.25;;;5.68;;
9496;SDS011;4786;51.270;4.456;2023-05-13T06:30:49;8.43;;;5.45;;
9496;SDS011;4786;51.270;4.456;2023-05-13T06:33:15;6.57;;;5.22;;
9496;SDS011;4786;51.270;4.456;2023-05-13T06:35:41;5.97;;;4.97;;
9496;SDS011;4786;51.270;4.456;2023-05-13T06:38:11;6.70;;;5.68;;
9496;SDS011;4786;51.270;4.456;2023-05-13T06:40:38;6.85;;;6.15;;
9496;SDS011;4786;51.270;4.456;2023-05-13T06:43:03;5.78;;;5.18;;
9496;SDS011;4786;51.270;4.456;2023-05-13T06:45:30;6.63;;;6.00;;
9496;SDS011;4786;51.270;4.456;2023-05-13T06:47:56;9.15;;;6.43;;
9496;SDS011;4786;51.270;4.456;2023-05-13T06:50:22;6.55;;;5.78;;
9496;SDS011;4786;51.270;4.456;2023-05-13T06:52:48;6.60;;;6.00;;
9496;SDS011;4786;51.270;4.456;2023-05-13T06:55:13;10.25;;;6.65;;
9496;SDS011;4786;51.270;4.456;2023-05-13T06:57:40;7.15;;;5.90;;
9496;SDS011;4786;51.270;4.456;2023-05-13T07:00:10;7.05;;;6.35;;
9496;SDS011;4786;51.270;4.456;2023-05-13T07:02:37;7.80;;;7.00;;
9496;SDS011;4786;51.270;4.456;2023-05-13T07:05:03;8.30;;;7.25;;
9496;SDS011;4786;51.270;4.456;2023-05-13T07:07:29;9.00;;;6.00;;
9496;SDS011;4786;51.270;4.456;2023-05-13T07:09:56;7.35;;;6.60;;
9496;SDS011;4786;51.270;4.456;2023-05-13T07:12:22;9.18;;;7.07;;
9496;SDS011;4786;51.270;4.456;2023-05-13T07:14:47;8.55;;;6.50;;
9496;SDS011;4786;51.270;4.456;2023-05-13T07:17:14;7.43;;;6.65;;
9496;SDS011;4786;51.270;4.456;2023-05-13T07:19:40;9.95;;;6.72;;
9496;SDS011;4786;51.270;4.456;2023-05-13T07:22:05;9.40;;;7.13;;
9496;SDS011;4786;51.270;4.456;2023-05-13T07:24:32;6.80;;;5.97;;
9496;SDS011;4786;51.270;4.456;2023-05-13T07:26:58;8.05;;;6.75;;
9496;SDS011;4786;51.270;4.456;2023-05-13T07:29:25;10.20;;;6.82;;
9496;SDS011;4786;51.270;4.456;2023-05-13T07:31:51;9.55;;;7.80;;
9496;SDS011;4786;51.270;4.456;2023-05-13T07:34:17;10.93;;;6.88;;
9496;SDS011;4786;51.270;4.456;2023-05-13T07:36:43;7.63;;;6.95;;
9496;SDS011;4786;51.270;4.456;2023-05-13T07:39:09;8.07;;;6.75;;
9496;SDS011;4786;51.270;4.456;2023-05-13T07:41:35;11.63;;;7.32;;
9496;SDS011;4786;51.270;4.456;2023-05-13T07:44:01;9.32;;;7.13;;
9496;SDS011;4786;51.270;4.456;2023-05-13T07:46:27;9.13;;;6.90;;
9496;SDS011;4786;51.270;4.456;2023-05-13T07:48:53;8.45;;;7.53;;
9496;SDS011;4786;51.270;4.456;2023-05-13T07:51:18;8.98;;;7.70;;
9496;SDS011;4786;51.270;4.456;2023-05-13T07:53:44;8.50;;;7.65;;
9496;SDS011;4786;51.270;4.456;2023-05-13T07:56:11;9.57;;;7.45;;
9496;SDS011;4786;51.270;4.456;2023-05-13T07:58:37;8.52;;;7.13;;
9496;SDS011;4786;51.270;4.456;2023-05-13T08:01:02;17.58;;;8.20;;
9496;SDS011;4786;51.270;4.456;2023-05-13T08:03:29;8.93;;;7.95;;
9496;SDS011;4786;51.270;4.456;2023-05-13T08:05:55;7.72;;;6.57;;
9496;SDS011;4786;51.270;4.456;2023-05-13T08:08:20;8.25;;;7.45;;
9496;SDS011;4786;51.270;4.456;2023-05-13T08:10:47;8.05;;;7.25;;
9496;SDS011;4786;51.270;4.456;2023-05-13T08:13:12;9.27;;;7.38;;
9496;SDS011;4786;51.270;4.456;2023-05-13T08:15:38;8.48;;;7.40;;
9496;SDS011;4786;51.270;4.456;2023-05-13T08:18:05;8.40;;;6.55;;
9496;SDS011;4786;51.270;4.456;2023-05-13T08:20:30;10.18;;;7.43;;
9496;SDS011;4786;51.270;4.456;2023-05-13T08:22:56;10.73;;;7.70;;
9496;SDS011;4786;51.270;4.456;2023-05-13T08:25:23;13.32;;;7.03;;
9496;SDS011;4786;51.270;4.456;2023-05-13T08:27:49;7.57;;;6.88;;
9496;SDS011;4786;51.270;4.456;2023-05-13T08:30:15;7.80;;;7.07;;
9496;SDS011;4786;51.270;4.456;2023-05-13T08:32:41;16.65;;;8.00;;
9496;SDS011;4786;51.270;4.456;2023-05-13T08:35:07;10.07;;;8.07;;
9496;SDS011;4786;51.270;4.456;2023-05-13T08:37:34;8.63;;;6.93;;
9496;SDS011;4786;51.270;4.456;2023-05-13T08:39:59;7.90;;;6.68;;
9496;SDS011;4786;51.270;4.456;2023-05-13T08:42:31;8.00;;;7.13;;
9496;SDS011;4786;51.270;4.456;2023-05-13T08:44:57;9.60;;;7.28;;
9496;SDS011;4786;51.270;4.456;2023-05-13T08:50:19;9.27;;;7.30;;
9496;SDS011;4786;51.270;4.456;2023-05-13T08:52:46;7.97;;;7.07;;
9496;SDS011;4786;51.270;4.456;2023-05-13T08:55:14;10.50;;;7.28;;
9496;SDS011;4786;51.270;4.456;2023-05-13T08:57:41;7.00;;;6.35;;
9496;SDS011;4786;51.270;4.456;2023-05-13T09:00:07;10.27;;;7.47;;
9496;SDS011;4786;51.270;4.456;2023-05-13T09:02:33;10.90;;;7.70;;
9496;SDS011;4786;51.270;4.456;2023-05-13T09:05:01;8.52;;;6.88;;
9496;SDS011;4786;51.270;4.456;2023-05-13T09:07:31;11.32;;;7.07;;
9496;SDS011;4786;51.270;4.456;2023-05-13T09:09:57;9.23;;;7.60;;
9496;SDS011;4786;51.270;4.456;2023-05-13T09:15:09;7.75;;;7.05;;
9496;SDS011;4786;51.270;4.456;2023-05-13T09:17:38;9.15;;;7.60;;
9496;SDS011;4786;51.270;4.456;2023-05-13T09:20:09;7.47;;;6.82;;
9496;SDS011;4786;51.270;4.456;2023-05-13T09:22:40;8.07;;;6.57;;
9496;SDS011;4786;51.270;4.456;2023-05-13T09:25:10;9.48;;;6.57;;
9496;SDS011;4786;51.270;4.456;2023-05-13T09:27:38;8.27;;;6.70;;
9496;SDS011;4786;51.270;4.456;2023-05-13T09:30:05;9.52;;;7.25;;
9496;SDS011;4786;51.270;4.456;2023-05-13T09:32:31;9.18;;;6.95;;
9496;SDS011;4786;51.270;4.456;2023-05-13T09:35:06;7.97;;;7.15;;
9496;SDS011;4786;51.270;4.456;2023-05-13T09:37:37;8.10;;;7.40;;
9496;SDS011;4786;51.270;4.456;2023-05-13T09:40:04;8.57;;;7.80;;
9496;SDS011;4786;51.270;4.456;2023-05-13T09:42:30;9.52;;;7.50;;
9496;SDS011;4786;51.270;4.456;2023-05-13T09:44:57;10.82;;;7.65;;
9496;SDS011;4786;51.270;4.456;2023-05-13T09:47:30;8.13;;;7.10;;
9496;SDS011;4786;51.270;4.456;2023-05-13T09:49:56;9.48;;;7.35;;
9496;SDS011;4786;51.270;4.456;2023-05-13T09:52:22;9.48;;;7.15;;
9496;SDS011;4786;51.270;4.456;2023-05-13T09:54:47;10.88;;;6.63;;
9496;SDS011;4786;51.270;4.456;2023-05-13T09:57:13;7.40;;;6.35;;
9496;SDS011;4786;51.270;4.456;2023-05-13T09:59:40;10.35;;;7.88;;
9496;SDS011;4786;51.270;4.456;2023-05-13T10:02:06;11.02;;;7.28;;
9496;SDS011;4786;51.270;4.456;2023-05-13T10:04:32;8.93;;;7.47;;
9496;SDS011;4786;51.270;4.456;2023-05-13T10:07:00;7.53;;;6.60;;
9496;SDS011;4786;51.270;4.456;2023-05-13T10:09:29;8.43;;;7.63;;
9496;SDS011;4786;51.270;4.456;2023-05-13T10:12:02;10.95;;;7.35;;
9496;SDS011;4786;51.270;4.456;2023-05-13T10:14:31;9.38;;;6.65;;
9496;SDS011;4786;51.270;4.456;2023-05-13T10:16:58;8.10;;;6.25;;
9496;SDS011;4786;51.270;4.456;2023-05-13T10:19:24;7.60;;;6.15;;
9496;SDS011;4786;51.270;4.456;2023-05-13T10:21:51;7.88;;;7.07;;
9496;SDS011;4786;51.270;4.456;2023-05-13T10:24:18;8.40;;;7.60;;
9496;SDS011;4786;51.270;4.456;2023-05-13T10:26:46;8.77;;;7.85;;
9496;SDS011;4786;51.270;4.456;2023-05-13T10:29:14;9.13;;;7.57;;
9496;SDS011;4786;51.270;4.456;2023-05-13T10:31:43;7.07;;;6.38;;
9496;SDS011;4786;51.270;4.456;2023-05-13T10:34:10;6.85;;;6.25;;
9496;SDS011;4786;51.270;4.456;2023-05-13T10:44:37;8.77;;;7.40;;
9496;SDS011;4786;51.270;4.456;2023-05-13T10:47:03;10.27;;;7.32;;
9496;SDS011;4786;51.270;4.456;2023-05-13T10:49:33;7.93;;;6.72;;
9496;SDS011;4786;51.270;4.456;2023-05-13T10:52:06;8.73;;;7.22;;
9496;SDS011;4786;51.270;4.456;2023-05-13T10:54:37;8.68;;;7.93;;
9496;SDS011;4786;51.270;4.456;2023-05-13T10:57:05;6.68;;;6.07;;
9496;SDS011;4786;51.270;4.456;2023-05-13T10:59:33;6.63;;;6.03;;
9496;SDS011;4786;51.270;4.456;2023-05-13T11:02:01;7.05;;;5.72;;
9496;SDS011;4786;51.270;4.456;2023-05-13T11:05:18;7.85;;;6.20;;
9496;SDS011;4786;51.270;4.456;2023-05-13T11:07:43;6.95;;;5.72;;
9496;SDS011;4786;51.270;4.456;2023-05-13T11:10:26;7.38;;;5.47;;
9496;SDS011;4786;51.270;4.456;2023-05-13T11:15:47;5.18;;;4.70;;
9496;SDS011;4786;51.270;4.456;2023-05-13T11:18:14;6.20;;;5.30;;
9496;SDS011;4786;51.270;4.456;2023-05-13T11:20:43;9.75;;;5.13;;
9496;SDS011;4786;51.270;4.456;2023-05-13T11:23:17;6.30;;;5.47;;
9496;SDS011;4786;51.270;4.456;2023-05-13T11:25:44;6.20;;;5.00;;
9496;SDS011;4786;51.270;4.456;2023-05-13T11:28:15;8.10;;;5.75;;
9496;SDS011;4786;51.270;4.456;2023-05-13T11:30:51;7.18;;;5.97;;
9496;SDS011;4786;51.270;4.456;2023-05-13T11:36:36;6.15;;;5.55;;
9496;SDS011;4786;51.270;4.456;2023-05-13T11:39:10;5.65;;;5.05;;
9496;SDS011;4786;51.270;4.456;2023-05-13T11:41:41;7.03;;;5.32;;
9496;SDS011;4786;51.270;4.456;2023-05-13T11:44:11;5.38;;;4.88;;
9496;SDS011;4786;51.270;4.456;2023-05-13T11:52:01;6.50;;;5.90;;
9496;SDS011;4786;51.270;4.456;2023-05-13T11:54:28;4.95;;;4.53;;
9496;SDS011;4786;51.270;4.456;2023-05-13T11:56:54;10.00;;;5.50;;
9496;SDS011;4786;51.270;4.456;2023-05-13T11:59:20;8.60;;;5.60;;
9496;SDS011;4786;51.270;4.456;2023-05-13T12:01:57;9.95;;;4.47;;
9496;SDS011;4786;51.270;4.456;2023-05-13T12:04:27;5.65;;;4.82;;
9496;SDS011;4786;51.270;4.456;2023-05-13T12:06:55;7.32;;;5.45;;
9496;SDS011;4786;51.270;4.456;2023-05-13T12:09:22;7.78;;;5.50;;
9496;SDS011;4786;51.270;4.456;2023-05-13T12:11:49;6.82;;;6.13;;
9496;SDS011;4786;51.270;4.456;2023-05-13T12:14:17;6.13;;;5.53;;
9496;SDS011;4786;51.270;4.456;2023-05-13T12:16:47;6.00;;;5.25;;
9496;SDS011;4786;51.270;4.456;2023-05-13T12:19:13;8.30;;;5.07;;
9496;SDS011;4786;51.270;4.456;2023-05-13T12:21:39;7.68;;;6.10;;
9496;SDS011;4786;51.270;4.456;2023-05-13T12:24:15;6.85;;;5.22;;
9496;SDS011;4786;51.270;4.456;2023-05-13T12:26:42;6.57;;;5.75;;
9496;SDS011;4786;51.270;4.456;2023-05-13T12:29:08;5.30;;;4.80;;
9496;SDS011;4786;51.270;4.456;2023-05-13T12:31:34;7.70;;;6.45;;
9496;SDS011;4786;51.270;4.456;2023-05-13T12:34:00;6.85;;;5.60;;
9496;SDS011;4786;51.270;4.456;2023-05-13T12:36:26;7.47;;;5.05;;
9496;SDS011;4786;51.270;4.456;2023-05-13T12:41:31;7.28;;;5.18;;
9496;SDS011;4786;51.270;4.456;2023-05-13T12:44:03;9.30;;;5.93;;
9496;SDS011;4786;51.270;4.456;2023-05-13T12:46:32;8.65;;;5.53;;
9496;SDS011;4786;51.270;4.456;2023-05-13T12:48:59;7.40;;;6.65;;
9496;SDS011;4786;51.270;4.456;2023-05-13T12:51:26;6.40;;;5.85;;
9496;SDS011;4786;51.270;4.456;2023-05-13T12:53:53;7.90;;;5.15;;
9496;SDS011;4786;51.270;4.456;2023-05-13T12:56:23;6.35;;;5.45;;
9496;SDS011;4786;51.270;4.456;2023-05-13T12:58:51;7.63;;;5.28;;
9496;SDS011;4786;51.270;4.456;2023-05-13T13:01:18;5.43;;;4.90;;
9496;SDS011;4786;51.270;4.456;2023-05-13T13:03:45;6.07;;;5.57;;
9496;SDS011;4786;51.270;4.456;2023-05-13T13:06:11;8.63;;;5.85;;
9496;SDS011;4786;51.270;4.456;2023-05-13T13:08:38;6.47;;;5.13;;
9496;SDS011;4786;51.270;4.456;2023-05-13T13:11:04;6.80;;;5.68;;
9496;SDS011;4786;51.270;4.456;2023-05-13T13:13:31;7.70;;;5.32;;
9496;SDS011;4786;51.270;4.456;2023-05-13T13:15:57;6.57;;;5.80;;
9496;SDS011;4786;51.270;4.456;2023-05-13T13:18:24;7.05;;;5.63;;
9496;SDS011;4786;51.270;4.456;2023-05-13T13:20:50;8.35;;;5.82;;
9496;SDS011;4786;51.270;4.456;2023-05-13T13:23:17;8.65;;;5.97;;
9496;SDS011;4786;51.270;4.456;2023-05-13T13:25:44;7.57;;;5.75;;
9496;SDS011;4786;51.270;4.456;2023-05-13T13:28:10;8.48;;;5.70;;
9496;SDS011;4786;51.270;4.456;2023-05-13T13:30:37;6.40;;;5.70;;
9496;SDS011;4786;51.270;4.456;2023-05-13T13:33:03;6.78;;;6.10;;
9496;SDS011;4786;51.270;4.456;2023-05-13T13:35:28;6.38;;;5.63;;
9496;SDS011;4786;51.270;4.456;2023-05-13T13:37:55;10.57;;;5.50;;
9496;SDS011;4786;51.270;4.456;2023-05-13T13:40:21;5.80;;;5.30;;
9496;SDS011;4786;51.270;4.456;2023-05-13T13:42:47;8.63;;;6.55;;
9496;SDS011;4786;51.270;4.456;2023-05-13T13:45:13;8.35;;;6.80;;
9496;SDS011;4786;51.270;4.456;2023-05-13T13:47:40;6.82;;;5.28;;
9496;SDS011;4786;51.270;4.456;2023-05-13T13:50:06;6.60;;;5.53;;
9496;SDS011;4786;51.270;4.456;2023-05-13T13:52:32;8.98;;;6.13;;
9496;SDS011;4786;51.270;4.456;2023-05-13T13:54:58;6.18;;;5.57;;
9496;SDS011;4786;51.270;4.456;2023-05-13T13:57:24;8.55;;;5.32;;
9496;SDS011;4786;51.270;4.456;2023-05-13T13:59:50;8.73;;;5.93;;
9496;SDS011;4786;51.270;4.456;2023-05-13T14:02:16;6.50;;;5.57;;
9496;SDS011;4786;51.270;4.456;2023-05-13T14:04:42;6.05;;;4.50;;
9496;SDS011;4786;51.270;4.456;2023-05-13T14:07:10;6.05;;;4.47;;
9496;SDS011;4786;51.270;4.456;2023-05-13T14:09:36;6.18;;;4.20;;
9496;SDS011;4786;51.270;4.456;2023-05-13T14:12:01;5.13;;;3.75;;
9496;SDS011;4786;51.270;4.456;2023-05-13T14:14:28;7.63;;;4.22;;
9496;SDS011;4786;51.270;4.456;2023-05-13T14:16:54;4.50;;;4.03;;
9496;SDS011;4786;51.270;4.456;2023-05-13T14:19:20;7.28;;;4.80;;
9496;SDS011;4786;51.270;4.456;2023-05-13T14:21:46;8.25;;;4.18;;
9496;SDS011;4786;51.270;4.456;2023-05-13T14:24:12;4.57;;;4.18;;
9496;SDS011;4786;51.270;4.456;2023-05-13T14:26:38;4.57;;;4.18;;
9496;SDS011;4786;51.270;4.456;2023-05-13T14:29:04;10.18;;;4.57;;
9496;SDS011;4786;51.270;4.456;2023-05-13T14:31:30;5.03;;;4.57;;
9496;SDS011;4786;51.270;4.456;2023-05-13T14:33:56;6.65;;;4.25;;
9496;SDS011;4786;51.270;4.456;2023-05-13T14:36:22;5.97;;;4.28;;
9496;SDS011;4786;51.270;4.456;2023-05-13T14:38:50;10.27;;;5.18;;
9496;SDS011;4786;51.270;4.456;2023-05-13T14:41:19;6.45;;;4.90;;
9496;SDS011;4786;51.270;4.456;2023-05-13T14:43:45;5.07;;;4.25;;
9496;SDS011;4786;51.270;4.456;2023-05-13T14:46:11;6.22;;;4.60;;
9496;SDS011;4786;51.270;4.456;2023-05-13T14:48:37;5.43;;;4.30;;
9496;SDS011;4786;51.270;4.456;2023-05-13T14:51:03;8.13;;;4.50;;
9496;SDS011;4786;51.270;4.456;2023-05-13T14:53:29;5.78;;;4.70;;
9496;SDS011;4786;51.270;4.456;2023-05-13T14:55:55;4.93;;;3.83;;
9496;SDS011;4786;51.270;4.456;2023-05-13T14:58:21;5.35;;;4.90;;
9496;SDS011;4786;51.270;4.456;2023-05-13T15:00:48;6.05;;;4.57;;
9496;SDS011;4786;51.270;4.456;2023-05-13T15:03:14;7.63;;;5.15;;
9496;SDS011;4786;51.270;4.456;2023-05-13T15:05:40;7.57;;;5.18;;
9496;SDS011;4786;51.270;4.456;2023-05-13T15:08:08;5.18;;;4.68;;
9496;SDS011;4786;51.270;4.456;2023-05-13T15:10:34;6.32;;;4.53;;
9496;SDS011;4786;51.270;4.456;2023-05-13T15:13:00;4.68;;;4.28;;
9496;SDS011;4786;51.270;4.456;2023-05-13T15:15:26;4.35;;;3.95;;
9496;SDS011;4786;51.270;4.456;2023-05-13T15:17:52;4.25;;;3.85;;
9496;SDS011;4786;51.270;4.456;2023-05-13T15:20:18;4.95;;;3.90;;
9496;SDS011;4786;51.270;4.456;2023-05-13T15:22:44;4.63;;;3.75;;
9496;SDS011;4786;51.270;4.456;2023-05-13T15:25:10;6.95;;;4.70;;
9496;SDS011;4786;51.270;4.456;2023-05-13T15:27:36;7.07;;;4.93;;
9496;SDS011;4786;51.270;4.456;2023-05-13T15:30:03;6.00;;;4.50;;
9496;SDS011;4786;51.270;4.456;2023-05-13T15:32:29;5.20;;;4.78;;
9496;SDS011;4786;51.270;4.456;2023-05-13T15:34:55;6.15;;;4.60;;
9496;SDS011;4786;51.270;4.456;2023-05-13T15:37:21;5.97;;;4.50;;
9496;SDS011;4786;51.270;4.456;2023-05-13T15:39:48;4.93;;;4.53;;
9496;SDS011;4786;51.270;4.456;2023-05-13T15:42:13;7.35;;;5.93;;
9496;SDS011;4786;51.270;4.456;2023-05-13T15:44:39;7.80;;;5.75;;